Zellwood, FL (32798)

1:28 PM EDT on June 30, 2015 (GMT -0400)
Rock Springs Ridge | | Change Station
CLOSE
Current Station
Personal Weather Station
Location: Apopka, FL
Elevation: 92 ft
Nearby Weather Stations

Elev 92 ft 28.75 °N, 81.54 °W | Updated 0 second ago

Partly Cloudy
Partly Cloudy
97.0 °F
Feels Like 113 °F
N
4.2
Wind Variable Wind from SSE
Gusts 7.3 mph

Today
High -- | Low -- °F
--% Chance of Precip.
Yesterday
High -- | Low -- °F
Precip. -- in
6:31 AM 8:28 PM
Waxing Gibbous, 98% visible
Pressure 30.12 in
Visibility 10.0 miles
Clouds Few 2800 ft
Scattered Clouds 7000 ft
Heat Index 113 °F
Dew Point 77 °F
Humidity 53%
Rainfall in
Snow Depth Not available.
UV 12 out of 12
Pollen .90 out of 12
Air Quality Not available.
Flu Activity Sporadic
METAR KLEE 301653Z 27008KT 10SM FEW028 SCT070 28/23 A3013 RMK AO2 LTG DSNT N RAB30E49 SLP200 P0002 T02830228

More Conditions Fewer Conditions

Pressure 30.12 in
Visibility 10.0 miles
Clouds Few 2800 ft
Scattered Clouds 7000 ft
Heat Index 113 °F
Dew Point 77 °F
Humidity 53%
Rainfall in
Snow Depth Not available.
UV 12 out of 12
Pollen .90 out of 12
Air Quality Not available.
Flu Activity Sporadic
METAR KLEE 301653Z 27008KT 10SM FEW028 SCT070 28/23 A3013 RMK AO2 LTG DSNT N RAB30E49 SLP200 P0002 T02830228

More Conditions Fewer Conditions

10-Day Weather Forecast

×

Almanac

Astronomy

Jun. 30, 2015 Rise Set
Actual Time
Civil Twilight
Nautical Twilight
Astronomical Twilight
Moon
Length of Visible Light
Length of Day
Tomorrow will be .
, % of the Moon is Illuminated

Today's Extremes

State Highs State Lows

Community

WunderPhotos

Upload Photos

1,834,048 photos uploaded!

WunderBlogs® & News

Nearby

Air Quality

  Air Quality AQ Index Pollutant
Not available.

Snow Depth

Station Depth Elevation

Earthquake Activity

City Distance Mag. Time & Date
Minimum magnitude displayed is 2.5.

Coastal Water Temperatures

Place Temperature

Stations

Nearby Weather Stations

Station Location Temp. Windchill Dew Point Humidity Wind Precip. Elev Updated Type